Time;durP1;ratioP1;P1;durP2;ratioP2;P2;SDS_P1;SDS_P2;PMS_P1;PMS_P2;Temp;Humidity;BMP_temperature;BMP_pressure;BME280_temperature;BME280_humidity;BME280_pressure;Samples;Min_cycle;Max_cycle;Signal;HPM_P1;HPM_P2
2023/09/29 00:01:07;;;;;;;3.43;3.23;;;;;;;;;;5009810;28;20428;-68
2023/09/29 00:03:33;;;;;;;3.40;3.07;;;;;;;;;;5010910;28;20435;-67
2023/09/29 00:05:59;;;;;;;3.90;3.70;;;;;;;;;;5008956;28;21004;-67
2023/09/29 00:08:25;;;;;;;3.50;3.20;;;;;;;;;;5010073;28;20912;-68
2023/09/29 00:10:51;;;;;;;3.80;3.50;;;;;;;;;;5010754;28;20440;-68
2023/09/29 00:13:17;;;;;;;3.40;3.30;;;;;;;;;;4992997;28;20450;-68
2023/09/29 00:15:43;;;;;;;3.73;3.33;;;;;;;;;;5005349;28;20503;-67
2023/09/29 00:18:09;;;;;;;3.90;3.60;;;;;;;;;;5007810;28;20823;-67
2023/09/29 00:20:35;;;;;;;4.63;4.27;;;;;;;;;;5009449;28;20924;-68
2023/09/29 00:23:02;;;;;;;6.10;5.47;;;;;;;;;;5008212;28;20512;-68
2023/09/29 00:25:28;;;;;;;7.47;4.63;;;;;;;;;;5009297;28;20610;-71
2023/09/29 00:27:55;;;;;;;4.37;3.97;;;;;;;;;;5009736;28;20471;-72
2023/09/29 00:30:21;;;;;;;4.17;3.87;;;;;;;;;;5009602;28;20524;-68
2023/09/29 00:32:50;;;;;;;8.23;3.53;;;;;;;;;;5006820;28;20928;-68
2023/09/29 00:35:38;;;;;;;3.17;3.07;;;;;;;;;;5009344;28;20565;-69
2023/09/29 00:38:03;;;;;;;3.37;2.97;;;;;;;;;;5009182;28;20424;-67
2023/09/29 00:40:30;;;;;;;3.07;2.97;;;;;;;;;;5010632;28;20431;-67
2023/09/29 00:42:59;;;;;;;3.20;2.97;;;;;;;;;;5009948;28;20424;-68
2023/09/29 00:45:26;;;;;;;3.00;2.80;;;;;;;;;;5007207;28;20590;-68
2023/09/29 00:47:57;;;;;;;9.40;3.63;;;;;;;;;;5008561;28;20456;-68
2023/09/29 00:50:23;;;;;;;2.60;2.47;;;;;;;;;;5010159;28;20511;-68
2023/09/29 00:52:54;;;;;;;2.97;2.77;;;;;;;;;;5009616;28;20447;-67
2023/09/29 00:55:23;;;;;;;2.50;2.40;;;;;;;;;;5008849;28;20437;-67
2023/09/29 00:57:51;;;;;;;4.80;3.20;;;;;;;;;;5007554;28;20991;-69
2023/09/29 01:02:58;;;;;;;3.30;2.90;;;;;;;;;;5008533;28;20528;-69
2023/09/29 01:05:25;;;;;;;2.53;2.40;;;;;;;;;;5008719;28;20475;-68
2023/09/29 01:07:51;;;;;;;4.90;2.23;;;;;;;;;;5008904;28;20551;-67
2023/09/29 01:10:17;;;;;;;4.00;2.17;;;;;;;;;;5010195;28;20451;-69
2023/09/29 01:12:43;;;;;;;3.40;2.10;;;;;;;;;;5008575;28;20443;-68
2023/09/29 01:15:13;;;;;;;3.10;2.80;;;;;;;;;;5008391;28;21026;-69
2023/09/29 01:17:39;;;;;;;2.50;2.40;;;;;;;;;;5009085;28;20799;-68
2023/09/29 01:20:13;;;;;;;2.00;1.90;;;;;;;;;;5009786;28;20511;-69
2023/09/29 01:22:45;;;;;;;2.70;2.60;;;;;;;;;;5006946;28;21799;-68
2023/09/29 01:25:11;;;;;;;7.13;2.70;;;;;;;;;;5008001;28;21205;-69
2023/09/29 01:27:37;;;;;;;2.87;2.77;;;;;;;;;;5008857;28;20458;-68
2023/09/29 01:30:03;;;;;;;4.10;2.50;;;;;;;;;;5009236;28;20836;-69
2023/09/29 01:32:30;;;;;;;2.80;2.70;;;;;;;;;;4989473;28;20963;-69
2023/09/29 01:34:56;;;;;;;3.03;2.70;;;;;;;;;;4992203;28;20993;-70
2023/09/29 01:37:22;;;;;;;2.40;2.30;;;;;;;;;;5012704;28;20527;-70
2023/09/29 01:39:48;;;;;;;2.77;2.60;;;;;;;;;;5011685;28;20436;-68
2023/09/29 01:42:15;;;;;;;2.37;2.27;;;;;;;;;;5012157;28;20825;-68
2023/09/29 01:44:41;;;;;;;2.33;2.23;;;;;;;;;;5011244;28;20435;-69
2023/09/29 01:47:08;;;;;;;9.60;2.23;;;;;;;;;;5010568;28;20501;-69
2023/09/29 01:49:34;;;;;;;2.70;2.50;;;;;;;;;;4992424;28;21058;-70
2023/09/29 01:52:00;;;;;;;6.57;2.43;;;;;;;;;;4994275;28;20534;-69
2023/09/29 01:54:28;;;;;;;2.37;2.17;;;;;;;;;;5012647;28;20829;-69
2023/09/29 01:56:54;;;;;;;3.70;2.43;;;;;;;;;;5010898;28;20448;-71
2023/09/29 01:59:20;;;;;;;6.10;2.03;;;;;;;;;;5010768;28;20482;-69
2023/09/29 02:01:46;;;;;;;2.90;2.80;;;;;;;;;;5011419;28;20502;-68
2023/09/29 02:04:12;;;;;;;2.63;2.53;;;;;;;;;;5008282;28;20441;-72
2023/09/29 02:06:40;;;;;;;3.43;3.13;;;;;;;;;;5011262;28;20983;-69
2023/09/29 02:09:09;;;;;;;2.67;2.53;;;;;;;;;;5009866;28;20431;-69
2023/09/29 02:11:36;;;;;;;2.77;2.63;;;;;;;;;;5010844;28;20432;-68
2023/09/29 02:14:03;;;;;;;7.33;2.77;;;;;;;;;;5012222;28;20455;-69
2023/09/29 02:16:30;;;;;;;2.77;2.57;;;;;;;;;;5012623;28;20455;-68
2023/09/29 02:18:56;;;;;;;7.30;2.77;;;;;;;;;;5009300;28;20470;-68
2023/09/29 02:21:22;;;;;;;5.23;2.90;;;;;;;;;;4993963;28;20542;-68
2023/09/29 02:23:48;;;;;;;3.10;2.80;;;;;;;;;;5011501;28;20436;-68
2023/09/29 02:26:17;;;;;;;6.10;2.50;;;;;;;;;;5008516;28;20498;-67
2023/09/29 02:28:43;;;;;;;2.60;2.60;;;;;;;;;;5008986;28;20436;-68
2023/09/29 02:31:13;;;;;;;14.03;3.23;;;;;;;;;;5007863;28;20448;-71
2023/09/29 02:33:40;;;;;;;3.37;3.27;;;;;;;;;;5008925;28;20447;-67
2023/09/29 02:36:06;;;;;;;2.43;2.23;;;;;;;;;;5009027;28;20546;-70
2023/09/29 02:38:32;;;;;;;4.90;3.33;;;;;;;;;;5009990;28;20435;-70
2023/09/29 02:40:59;;;;;;;2.37;2.33;;;;;;;;;;5011846;28;20793;-70
2023/09/29 02:43:25;;;;;;;6.10;2.57;;;;;;;;;;5011370;28;20531;-69
2023/09/29 02:45:51;;;;;;;6.27;3.07;;;;;;;;;;5010052;28;20475;-70
2023/09/29 02:48:17;;;;;;;3.43;3.23;;;;;;;;;;5009783;28;20447;-68
2023/09/29 02:50:44;;;;;;;3.17;2.90;;;;;;;;;;4992595;28;20440;-70
2023/09/29 02:53:10;;;;;;;4.50;3.80;;;;;;;;;;5010988;28;20448;-68
2023/09/29 02:55:37;;;;;;;4.97;4.10;;;;;;;;;;5009910;28;20483;-69
2023/09/29 02:58:03;;;;;;;8.87;3.67;;;;;;;;;;5010801;28;20439;-67
2023/09/29 03:00:31;;;;;;;9.00;3.10;;;;;;;;;;5009722;28;20448;-67
2023/09/29 03:02:57;;;;;;;2.70;2.60;;;;;;;;;;5009671;28;20508;-70
2023/09/29 03:05:24;;;;;;;3.43;3.07;;;;;;;;;;5010888;28;20443;-70
2023/09/29 03:07:50;;;;;;;4.13;3.93;;;;;;;;;;4990039;28;20449;-71
2023/09/29 03:10:17;;;;;;;3.90;3.60;;;;;;;;;;5011507;28;20479;-67
2023/09/29 03:12:44;;;;;;;3.20;2.93;;;;;;;;;;5010447;28;20994;-67
2023/09/29 03:15:11;;;;;;;3.70;3.40;;;;;;;;;;5009367;28;20492;-68
2023/09/29 03:17:37;;;;;;;2.90;2.80;;;;;;;;;;5008579;28;20448;-68
2023/09/29 03:20:22;;;;;;;3.93;2.80;;;;;;;;;;5010404;28;20440;-71
2023/09/29 03:22:48;;;;;;;3.10;2.90;;;;;;;;;;5010655;28;20428;-69
2023/09/29 03:25:19;;;;;;;10.97;2.90;;;;;;;;;;5009557;28;20452;-69
2023/09/29 03:27:45;;;;;;;3.13;3.00;;;;;;;;;;5008481;28;20455;-71
2023/09/29 03:30:11;;;;;;;3.67;3.37;;;;;;;;;;5010151;28;20471;-68
2023/09/29 03:32:37;;;;;;;3.40;3.10;;;;;;;;;;5010164;28;20540;-68
2023/09/29 03:35:07;;;;;;;5.37;5.07;;;;;;;;;;5010595;28;20523;-68
2023/09/29 03:37:36;;;;;;;3.13;3.00;;;;;;;;;;5009480;28;20860;-72
2023/09/29 03:40:07;;;;;;;7.70;3.10;;;;;;;;;;5009927;28;20479;-69
2023/09/29 03:42:33;;;;;;;5.40;3.23;;;;;;;;;;5010092;28;21046;-72
2023/09/29 03:44:59;;;;;;;5.43;3.53;;;;;;;;;;5006783;28;20435;-68
2023/09/29 03:47:25;;;;;;;4.30;4.00;;;;;;;;;;5008021;28;20495;-69
2023/09/29 03:49:52;;;;;;;2.50;2.20;;;;;;;;;;5009051;28;20832;-71
2023/09/29 03:52:18;;;;;;;9.40;3.40;;;;;;;;;;5009590;28;20936;-68
2023/09/29 03:54:44;;;;;;;6.53;3.23;;;;;;;;;;5010081;28;20521;-68
2023/09/29 03:57:10;;;;;;;2.97;2.87;;;;;;;;;;5009453;28;20535;-68
2023/09/29 03:59:36;;;;;;;3.00;2.90;;;;;;;;;;5008299;28;20472;-67
2023/09/29 04:02:02;;;;;;;10.50;4.50;;;;;;;;;;4991959;28;20456;-69
2023/09/29 04:04:28;;;;;;;2.60;2.50;;;;;;;;;;4991819;28;20436;-67
2023/09/29 04:06:54;;;;;;;3.50;3.20;;;;;;;;;;5008893;28;20970;-68
2023/09/29 04:09:20;;;;;;;9.53;3.13;;;;;;;;;;5009107;28;20484;-68
2023/09/29 04:11:49;;;;;;;3.30;3.10;;;;;;;;;;5009649;28;20440;-70
2023/09/29 04:14:15;;;;;;;3.63;3.10;;;;;;;;;;5008478;28;20563;-71
2023/09/29 04:16:41;;;;;;;3.77;3.57;;;;;;;;;;5008656;28;20611;-72
2023/09/29 04:19:07;;;;;;;3.30;3.00;;;;;;;;;;5009080;28;20428;-72
2023/09/29 04:21:33;;;;;;;3.83;2.83;;;;;;;;;;5009865;28;20932;-71
2023/09/29 04:23:59;;;;;;;8.57;3.50;;;;;;;;;;5009361;28;20424;-71
2023/09/29 04:26:25;;;;;;;7.33;3.20;;;;;;;;;;5007647;28;20579;-71
2023/09/29 04:28:51;;;;;;;3.65;3.40;;;;;;;;;;5008673;28;20431;-68
2023/09/29 04:31:18;;;;;;;7.30;3.27;;;;;;;;;;5008632;28;20199;-69
2023/09/29 04:33:44;;;;;;;3.20;3.10;;;;;;;;;;5007710;28;20889;-70
2023/09/29 04:36:11;;;;;;;3.83;3.63;;;;;;;;;;5005440;28;20463;-69
2023/09/29 04:38:37;;;;;;;3.17;3.07;;;;;;;;;;5009522;28;20524;-71
2023/09/29 04:41:04;;;;;;;8.80;3.10;;;;;;;;;;5009228;28;20440;-69
2023/09/29 04:43:30;;;;;;;2.33;2.33;;;;;;;;;;5008286;28;20435;-71
2023/09/29 04:45:56;;;;;;;9.10;2.93;;;;;;;;;;5006402;28;20888;-70
2023/09/29 04:48:23;;;;;;;3.57;3.30;;;;;;;;;;5009036;28;20502;-68
2023/09/29 04:50:49;;;;;;;2.63;2.53;;;;;;;;;;5007925;28;20443;-68
2023/09/29 04:53:15;;;;;;;4.67;2.80;;;;;;;;;;5007463;28;20512;-67
2023/09/29 04:55:41;;;;;;;3.87;3.67;;;;;;;;;;5007662;28;20440;-68
2023/09/29 04:58:08;;;;;;;4.77;3.10;;;;;;;;;;5009474;28;20455;-68
2023/09/29 05:00:35;;;;;;;5.63;3.17;;;;;;;;;;5009303;28;21022;-69
2023/09/29 05:03:01;;;;;;;4.00;3.20;;;;;;;;;;5009005;28;20923;-69
2023/09/29 05:05:27;;;;;;;8.17;3.90;;;;;;;;;;5006906;28;20459;-69
2023/09/29 05:07:53;;;;;;;8.43;4.07;;;;;;;;;;5008267;28;20585;-71
2023/09/29 05:10:22;;;;;;;3.07;2.87;;;;;;;;;;5012093;28;20787;-68
2023/09/29 05:12:48;;;;;;;3.93;3.00;;;;;;;;;;5015141;28;20459;-67
2023/09/29 05:15:14;;;;;;;3.60;3.30;;;;;;;;;;5015018;28;20520;-70
2023/09/29 05:17:40;;;;;;;3.27;3.07;;;;;;;;;;5014764;28;20455;-71
2023/09/29 05:20:06;;;;;;;3.00;2.90;;;;;;;;;;5013272;28;20439;-69
2023/09/29 05:22:32;;;;;;;3.83;3.30;;;;;;;;;;5015508;28;20826;-71
2023/09/29 05:24:59;;;;;;;2.83;2.70;;;;;;;;;;4998313;28;20439;-70
2023/09/29 05:27:25;;;;;;;6.93;3.50;;;;;;;;;;5015299;28;21230;-68
2023/09/29 05:29:51;;;;;;;2.30;2.30;;;;;;;;;;5015156;28;21065;-69
2023/09/29 05:32:17;;;;;;;4.27;3.50;;;;;;;;;;4997478;28;20902;-68
2023/09/29 05:34:43;;;;;;;3.47;3.37;;;;;;;;;;5015131;28;20436;-68
2023/09/29 05:37:09;;;;;;;16.23;4.43;;;;;;;;;;5014143;28;20514;-71
2023/09/29 05:39:35;;;;;;;3.17;3.00;;;;;;;;;;5015807;28;20436;-70
2023/09/29 05:42:01;;;;;;;6.33;3.07;;;;;;;;;;5016306;28;21007;-69
2023/09/29 05:44:27;;;;;;;4.00;3.00;;;;;;;;;;5015083;28;20416;-69
2023/09/29 05:46:53;;;;;;;8.63;4.27;;;;;;;;;;5008909;28;20586;-68
2023/09/29 05:49:19;;;;;;;3.40;3.20;;;;;;;;;;5013179;28;20443;-69
2023/09/29 05:51:44;;;;;;;3.13;3.03;;;;;;;;;;5015444;28;20451;-71
2023/09/29 05:54:11;;;;;;;4.40;3.63;;;;;;;;;;5013925;28;20526;-71
2023/09/29 05:56:37;;;;;;;4.60;3.60;;;;;;;;;;5013745;28;20848;-69
2023/09/29 05:59:03;;;;;;;3.20;3.10;;;;;;;;;;5014680;28;20431;-68
2023/09/29 06:01:30;;;;;;;9.10;3.90;;;;;;;;;;5015392;28;20496;-68
2023/09/29 06:03:56;;;;;;;4.33;3.73;;;;;;;;;;5014568;28;20496;-70
2023/09/29 06:06:23;;;;;;;5.90;2.67;;;;;;;;;;5015078;28;20471;-68
2023/09/29 06:08:49;;;;;;;6.90;3.73;;;;;;;;;;5012242;28;21015;-71
2023/09/29 06:11:15;;;;;;;3.43;3.10;;;;;;;;;;5014549;28;20540;-69
2023/09/29 06:13:42;;;;;;;9.50;3.20;;;;;;;;;;5014596;28;20444;-73
2023/09/29 06:16:08;;;;;;;3.20;2.90;;;;;;;;;;5015437;28;20533;-71
2023/09/29 06:18:34;;;;;;;5.17;3.60;;;;;;;;;;5014178;28;20443;-69
2023/09/29 06:21:00;;;;;;;4.10;3.90;;;;;;;;;;5011351;28;20806;-67
2023/09/29 06:23:26;;;;;;;12.10;3.40;;;;;;;;;;5010010;28;20506;-69
2023/09/29 06:25:59;;;;;;;3.47;3.17;;;;;;;;;;5012333;28;20483;-71
2023/09/29 06:28:25;;;;;;;3.30;3.10;;;;;;;;;;4993488;28;20428;-69
2023/09/29 06:30:52;;;;;;;2.90;2.70;;;;;;;;;;5011066;28;20968;-70
2023/09/29 06:33:19;;;;;;;9.07;3.20;;;;;;;;;;5010231;28;20432;-67
2023/09/29 06:35:44;;;;;;;7.23;3.10;;;;;;;;;;5012703;28;20850;-67
2023/09/29 06:38:11;;;;;;;3.43;3.23;;;;;;;;;;5011405;28;20938;-67
2023/09/29 06:40:37;;;;;;;3.67;3.37;;;;;;;;;;5011124;28;20826;-68
2023/09/29 06:43:03;;;;;;;10.33;3.80;;;;;;;;;;5011955;28;20455;-69
2023/09/29 06:45:31;;;;;;;3.10;2.90;;;;;;;;;;4993065;28;20785;-67
2023/09/29 06:47:57;;;;;;;13.33;3.70;;;;;;;;;;5010072;28;20452;-67
2023/09/29 06:50:23;;;;;;;16.83;3.70;;;;;;;;;;5011781;28;20424;-68
2023/09/29 06:52:49;;;;;;;5.70;3.03;;;;;;;;;;5008779;28;20857;-68
2023/09/29 06:55:15;;;;;;;4.80;3.40;;;;;;;;;;4993676;28;20460;-68
2023/09/29 06:57:41;;;;;;;8.67;3.23;;;;;;;;;;5009613;28;20452;-67
2023/09/29 07:00:10;;;;;;;3.17;3.07;;;;;;;;;;5007357;28;20467;-68
2023/09/29 07:02:37;;;;;;;4.00;2.73;;;;;;;;;;5012599;28;20493;-68
2023/09/29 07:05:03;;;;;;;3.37;2.67;;;;;;;;;;5010673;28;21458;-68
2023/09/29 07:07:29;;;;;;;3.93;2.80;;;;;;;;;;5011240;28;21121;-71
2023/09/29 07:09:55;;;;;;;4.60;2.97;;;;;;;;;;5009482;28;20444;-68
2023/09/29 07:12:21;;;;;;;3.17;3.00;;;;;;;;;;4992845;28;20493;-68
2023/09/29 07:14:47;;;;;;;3.70;3.40;;;;;;;;;;5010418;28;20484;-69
2023/09/29 07:17:14;;;;;;;7.03;2.50;;;;;;;;;;5011450;28;20912;-67
2023/09/29 07:19:40;;;;;;;2.97;2.63;;;;;;;;;;5009978;28;20463;-69
2023/09/29 07:22:09;;;;;;;10.23;3.87;;;;;;;;;;5011095;28;20467;-67
2023/09/29 07:24:35;;;;;;;2.43;2.23;;;;;;;;;;5010406;28;20567;-67
2023/09/29 07:27:01;;;;;;;3.50;2.77;;;;;;;;;;4993245;28;20571;-68
2023/09/29 07:29:26;;;;;;;2.80;2.70;;;;;;;;;;4993356;28;20452;-67
2023/09/29 07:31:52;;;;;;;18.53;3.60;;;;;;;;;;5010948;28;20444;-68
2023/09/29 07:34:19;;;;;;;2.90;2.80;;;;;;;;;;5009508;28;20903;-68
2023/09/29 07:36:46;;;;;;;3.70;2.80;;;;;;;;;;5010309;28;20507;-69
2023/09/29 07:39:13;;;;;;;3.13;2.93;;;;;;;;;;5009762;28;20468;-67
2023/09/29 07:41:39;;;;;;;4.17;2.60;;;;;;;;;;5009734;28;20467;-67
2023/09/29 07:44:06;;;;;;;3.80;3.50;;;;;;;;;;5009793;28;20444;-68
2023/09/29 07:46:33;;;;;;;3.00;2.53;;;;;;;;;;5010376;28;20495;-67
2023/09/29 07:48:59;;;;;;;2.63;2.53;;;;;;;;;;5008663;28;20444;-68
2023/09/29 07:51:25;;;;;;;1.93;1.93;;;;;;;;;;5009202;28;20443;-67
2023/09/29 07:53:51;;;;;;;3.17;2.97;;;;;;;;;;5007867;28;20424;-67
2023/09/29 07:56:17;;;;;;;3.37;3.23;;;;;;;;;;5009444;28;20760;-67
2023/09/29 07:58:43;;;;;;;2.23;2.17;;;;;;;;;;5007957;28;20421;-68
2023/09/29 08:01:10;;;;;;;3.40;2.20;;;;;;;;;;5009115;28;20788;-68
2023/09/29 08:03:36;;;;;;;3.20;2.90;;;;;;;;;;5009669;28;20416;-68
2023/09/29 08:06:03;;;;;;;2.70;2.60;;;;;;;;;;5007944;28;20576;-68
2023/09/29 08:08:29;;;;;;;2.73;2.53;;;;;;;;;;5008130;28;20780;-68
2023/09/29 08:10:55;;;;;;;2.83;1.97;;;;;;;;;;5009070;28;20542;-68
2023/09/29 08:13:23;;;;;;;3.53;2.30;;;;;;;;;;5006561;28;21008;-67
2023/09/29 08:15:49;;;;;;;2.60;2.50;;;;;;;;;;4992264;28;20472;-68
2023/09/29 08:18:17;;;;;;;5.13;2.67;;;;;;;;;;5011069;28;20483;-68
2023/09/29 08:20:43;;;;;;;2.07;2.07;;;;;;;;;;5005904;28;20491;-68
2023/09/29 08:23:09;;;;;;;4.10;2.50;;;;;;;;;;5009866;28;20452;-67
2023/09/29 08:25:35;;;;;;;2.43;2.23;;;;;;;;;;5011047;28;20431;-68
2023/09/29 08:28:04;;;;;;;9.63;2.73;;;;;;;;;;5011624;28;20944;-68
2023/09/29 08:30:29;;;;;;;2.90;2.70;;;;;;;;;;5010250;28;20921;-68
2023/09/29 08:32:56;;;;;;;3.20;3.07;;;;;;;;;;5008315;28;20443;-68
2023/09/29 08:35:22;;;;;;;2.17;1.90;;;;;;;;;;5008296;28;20539;-68
2023/09/29 08:37:49;;;;;;;2.07;1.97;;;;;;;;;;5009628;28;21043;-68
2023/09/29 08:40:17;;;;;;;3.40;2.40;;;;;;;;;;5010320;28;20416;-67
2023/09/29 08:42:45;;;;;;;2.37;2.37;;;;;;;;;;5009906;28;20436;-67
2023/09/29 08:45:12;;;;;;;2.63;2.43;;;;;;;;;;5008899;28;20433;-68
2023/09/29 08:47:40;;;;;;;12.13;2.70;;;;;;;;;;5009811;28;20846;-68
2023/09/29 08:50:06;;;;;;;2.60;2.40;;;;;;;;;;5010099;28;20432;-68
2023/09/29 08:52:33;;;;;;;4.03;1.87;;;;;;;;;;5009797;28;20467;-68
2023/09/29 08:54:59;;;;;;;8.53;2.23;;;;;;;;;;4991593;28;20443;-68
2023/09/29 08:57:26;;;;;;;2.30;2.30;;;;;;;;;;5007393;28;20439;-68
2023/09/29 08:59:55;;;;;;;4.05;2.45;;;;;;;;;;5009236;28;20945;-69
2023/09/29 09:02:21;;;;;;;2.40;2.40;;;;;;;;;;5010813;28;20216;-68
2023/09/29 09:04:48;;;;;;;3.10;2.80;;;;;;;;;;5009541;28;20444;-69
2023/09/29 09:07:14;;;;;;;10.87;2.40;;;;;;;;;;4992421;28;20472;-67
2023/09/29 09:09:50;;;;;;;8.33;2.90;;;;;;;;;;5009144;28;20432;-68
2023/09/29 09:12:16;;;;;;;2.97;1.83;;;;;;;;;;5009100;28;20444;-68
2023/09/29 09:14:44;;;;;;;10.13;1.97;;;;;;;;;;5009181;28;20498;-69
2023/09/29 09:17:11;;;;;;;2.57;2.00;;;;;;;;;;5008971;28;20432;-68
2023/09/29 09:19:51;;;;;;;5.97;2.72;;;;;;;;;;5007007;28;20430;-68
2023/09/29 09:22:18;;;;;;;5.67;3.10;;;;;;;;;;5009218;28;20649;-67
2023/09/29 09:24:44;;;;;;;5.63;2.90;;;;;;;;;;5009531;28;20416;-68
2023/09/29 09:27:11;;;;;;;8.88;2.40;;;;;;;;;;5008438;28;20831;-69
2023/09/29 09:29:41;;;;;;;2.93;2.83;;;;;;;;;;5009159;28;20207;-68
2023/09/29 09:32:07;;;;;;;2.40;2.30;;;;;;;;;;5007876;28;20531;-69
2023/09/29 09:34:36;;;;;;;5.40;2.30;;;;;;;;;;4990795;28;20424;-67
2023/09/29 09:37:02;;;;;;;7.40;2.87;;;;;;;;;;5009076;28;20428;-69
2023/09/29 09:39:29;;;;;;;9.53;2.23;;;;;;;;;;4991400;28;20444;-68
2023/09/29 09:41:56;;;;;;;2.97;2.83;;;;;;;;;;5007749;28;20959;-68
2023/09/29 09:44:23;;;;;;;6.23;3.10;;;;;;;;;;5009470;28;20438;-68
2023/09/29 09:46:53;;;;;;;2.33;2.22;;;;;;;;;;5008514;28;20772;-68
2023/09/29 09:49:23;;;;;;;4.63;2.27;;;;;;;;;;5009259;28;20549;-70
2023/09/29 09:51:52;;;;;;;2.90;2.70;;;;;;;;;;5003784;28;20483;-68
2023/09/29 09:54:20;;;;;;;3.10;2.90;;;;;;;;;;5008471;28;20431;-68
2023/09/29 09:56:51;;;;;;;2.83;2.63;;;;;;;;;;5010055;28;20436;-69
2023/09/29 09:59:17;;;;;;;5.20;2.60;;;;;;;;;;5012337;28;20439;-68
2023/09/29 10:01:45;;;;;;;3.37;3.03;;;;;;;;;;5011171;28;20946;-72
2023/09/29 10:04:12;;;;;;;3.07;2.70;;;;;;;;;;5011333;28;20432;-68
2023/09/29 10:06:42;;;;;;;7.20;2.90;;;;;;;;;;5010505;28;20553;-73
2023/09/29 10:09:10;;;;;;;5.20;2.53;;;;;;;;;;5011702;28;20435;-70
2023/09/29 10:11:36;;;;;;;4.30;2.70;;;;;;;;;;5011263;28;20822;-73
2023/09/29 10:14:03;;;;;;;12.13;2.90;;;;;;;;;;5011801;28;20471;-69
2023/09/29 10:16:29;;;;;;;3.43;3.07;;;;;;;;;;5012774;28;20417;-72
2023/09/29 10:18:57;;;;;;;3.43;3.00;;;;;;;;;;5011182;28;20448;-72
2023/09/29 10:21:23;;;;;;;3.10;3.00;;;;;;;;;;5007135;28;20443;-68
2023/09/29 10:23:50;;;;;;;5.70;2.53;;;;;;;;;;5010989;28;20439;-67
2023/09/29 10:26:16;;;;;;;4.27;3.30;;;;;;;;;;4993558;28;20514;-67
2023/09/29 10:28:45;;;;;;;3.90;2.53;;;;;;;;;;5011969;28;20443;-67
2023/09/29 10:31:14;;;;;;;6.90;2.83;;;;;;;;;;5004875;28;20444;-67
2023/09/29 10:33:50;;;;;;;2.30;2.20;;;;;;;;;;4991405;28;20444;-67
2023/09/29 10:36:18;;;;;;;2.30;2.20;;;;;;;;;;4991967;28;20999;-68
2023/09/29 10:38:44;;;;;;;8.23;2.20;;;;;;;;;;5010217;28;20447;-67
2023/09/29 10:41:10;;;;;;;4.50;2.60;;;;;;;;;;5011715;28;20444;-67
2023/09/29 10:43:36;;;;;;;2.70;2.70;;;;;;;;;;5009260;28;20480;-67
2023/09/29 10:46:08;;;;;;;2.67;2.57;;;;;;;;;;5009090;28;20476;-67
2023/09/29 10:48:36;;;;;;;2.93;2.83;;;;;;;;;;5009066;28;20841;-66
2023/09/29 10:51:02;;;;;;;5.23;2.93;;;;;;;;;;5010832;28;20751;-67
2023/09/29 10:53:36;;;;;;;3.33;3.03;;;;;;;;;;5011018;28;20475;-67
2023/09/29 10:56:03;;;;;;;7.10;2.73;;;;;;;;;;5006253;28;20455;-67
2023/09/29 10:58:36;;;;;;;4.50;2.60;;;;;;;;;;5009682;28;20440;-76
2023/09/29 11:01:02;;;;;;;3.63;3.20;;;;;;;;;;5012079;28;20424;-68
2023/09/29 11:03:29;;;;;;;3.00;2.90;;;;;;;;;;5011097;28;20483;-68
2023/09/29 11:05:58;;;;;;;3.03;2.83;;;;;;;;;;5010873;28;20479;-69
2023/09/29 11:08:34;;;;;;;4.53;2.80;;;;;;;;;;4992285;28;20436;-67
2023/09/29 11:11:02;;;;;;;3.00;2.80;;;;;;;;;;5012183;28;20460;-67
2023/09/29 11:13:29;;;;;;;6.07;3.30;;;;;;;;;;5011676;28;20517;-68
2023/09/29 11:15:56;;;;;;;2.67;2.57;;;;;;;;;;4992698;28;20541;-67
2023/09/29 11:18:28;;;;;;;5.57;3.13;;;;;;;;;;5009763;28;20925;-67
2023/09/29 11:20:55;;;;;;;3.10;2.87;;;;;;;;;;4991879;28;20812;-67
2023/09/29 11:23:21;;;;;;;3.40;2.33;;;;;;;;;;5009157;28;20751;-67
2023/09/29 11:25:48;;;;;;;3.77;2.70;;;;;;;;;;5009565;28;20807;-68
2023/09/29 11:28:15;;;;;;;4.63;2.30;;;;;;;;;;5003913;28;20511;-68
2023/09/29 11:30:41;;;;;;;6.50;5.67;;;;;;;;;;5007536;28;20441;-68
2023/09/29 11:33:10;;;;;;;3.20;2.50;;;;;;;;;;5000144;28;20436;-67
2023/09/29 11:35:36;;;;;;;3.03;2.83;;;;;;;;;;4995817;28;20448;-68
2023/09/29 11:38:03;;;;;;;2.60;2.10;;;;;;;;;;5001904;28;20436;-71
2023/09/29 11:40:29;;;;;;;2.83;2.60;;;;;;;;;;5009394;28;20428;-69
2023/09/29 11:42:55;;;;;;;7.87;2.70;;;;;;;;;;5010675;28;20452;-68
2023/09/29 11:45:21;;;;;;;2.70;2.67;;;;;;;;;;5009327;28;20991;-67
2023/09/29 11:47:47;;;;;;;3.47;2.73;;;;;;;;;;4987031;28;20798;-68
2023/09/29 11:50:13;;;;;;;5.90;2.80;;;;;;;;;;5006137;28;20812;-68
2023/09/29 11:52:39;;;;;;;2.80;2.50;;;;;;;;;;5009963;28;20432;-69
2023/09/29 11:55:11;;;;;;;3.60;3.30;;;;;;;;;;5010281;28;20430;-67
2023/09/29 11:57:37;;;;;;;4.57;2.53;;;;;;;;;;5009845;28;20866;-70
2023/09/29 12:00:08;;;;;;;2.03;1.93;;;;;;;;;;5010621;28;20757;-68
2023/09/29 12:02:34;;;;;;;2.37;2.27;;;;;;;;;;4992934;28;20436;-70
2023/09/29 12:05:00;;;;;;;3.63;2.20;;;;;;;;;;5010377;28;20451;-67
2023/09/29 12:07:27;;;;;;;2.43;2.17;;;;;;;;;;5009100;28;20491;-68
2023/09/29 12:09:53;;;;;;;2.03;1.93;;;;;;;;;;5008862;28;20451;-68
2023/09/29 12:12:19;;;;;;;1.80;1.70;;;;;;;;;;4992604;28;20948;-71
2023/09/29 12:14:45;;;;;;;5.03;2.17;;;;;;;;;;4992496;28;20522;-69
2023/09/29 12:17:11;;;;;;;3.10;1.93;;;;;;;;;;5009784;28;20983;-68
2023/09/29 12:19:37;;;;;;;2.17;1.87;;;;;;;;;;5008826;28;20429;-68
2023/09/29 12:22:03;;;;;;;7.00;2.30;;;;;;;;;;4992177;28;20436;-69
2023/09/29 12:24:29;;;;;;;3.87;2.00;;;;;;;;;;5010514;28;20932;-71
2023/09/29 12:26:55;;;;;;;2.47;2.37;;;;;;;;;;5009565;28;20903;-68
2023/09/29 12:29:21;;;;;;;4.53;1.93;;;;;;;;;;5009361;28;20428;-68
2023/09/29 12:31:49;;;;;;;2.33;2.27;;;;;;;;;;5008589;28;20781;-68
2023/09/29 12:34:16;;;;;;;2.57;2.30;;;;;;;;;;5010208;28;20441;-69
2023/09/29 12:36:42;;;;;;;4.30;2.00;;;;;;;;;;5008398;28;20424;-67
2023/09/29 12:39:08;;;;;;;6.10;1.63;;;;;;;;;;5009481;28;20958;-68
2023/09/29 12:41:37;;;;;;;1.80;1.80;;;;;;;;;;5008503;28;20428;-70
2023/09/29 12:44:03;;;;;;;1.93;1.83;;;;;;;;;;5010140;28;20456;-71
2023/09/29 12:46:29;;;;;;;1.80;1.70;;;;;;;;;;5009333;28;21037;-69
2023/09/29 12:48:56;;;;;;;1.70;1.70;;;;;;;;;;5009604;28;20929;-67
2023/09/29 12:51:22;;;;;;;1.63;1.57;;;;;;;;;;5007795;28;20900;-68
2023/09/29 12:53:49;;;;;;;5.70;1.50;;;;;;;;;;4990795;28;20451;-69
2023/09/29 12:56:18;;;;;;;8.10;1.43;;;;;;;;;;5009375;28;21690;-67
2023/09/29 12:58:44;;;;;;;5.87;1.70;;;;;;;;;;5009251;28;20986;-68
2023/09/29 13:01:10;;;;;;;1.17;1.17;;;;;;;;;;5008806;28;20518;-69
2023/09/29 13:03:39;;;;;;;3.43;1.30;;;;;;;;;;5009125;28;20982;-67
2023/09/29 13:06:06;;;;;;;4.30;1.73;;;;;;;;;;5008316;28;20467;-68
2023/09/29 13:08:35;;;;;;;1.60;1.50;;;;;;;;;;5008777;28;20884;-69
2023/09/29 13:11:03;;;;;;;2.13;2.00;;;;;;;;;;5007596;28;20471;-70
2023/09/29 13:13:29;;;;;;;1.70;1.60;;;;;;;;;;5007687;28;20432;-69
2023/09/29 13:15:55;;;;;;;4.87;1.67;;;;;;;;;;5009402;28;20483;-69
2023/09/29 13:18:23;;;;;;;1.17;1.17;;;;;;;;;;5008371;28;20479;-68
2023/09/29 13:20:50;;;;;;;3.17;1.87;;;;;;;;;;5009508;28;20424;-67
2023/09/29 13:23:16;;;;;;;12.40;2.97;;;;;;;;;;5008278;28;20441;-68
2023/09/29 13:25:42;;;;;;;1.93;1.83;;;;;;;;;;5009168;28;20457;-68
2023/09/29 13:28:09;;;;;;;2.17;1.67;;;;;;;;;;4991386;28;20448;-70
2023/09/29 13:30:35;;;;;;;1.90;1.80;;;;;;;;;;5010278;28;20428;-68
2023/09/29 13:33:01;;;;;;;6.93;2.10;;;;;;;;;;5013008;28;20432;-67
2023/09/29 13:35:27;;;;;;;2.23;1.67;;;;;;;;;;5012955;28;20424;-68
2023/09/29 13:37:54;;;;;;;13.63;3.63;;;;;;;;;;5011250;28;20428;-67
2023/09/29 13:40:20;;;;;;;2.60;2.50;;;;;;;;;;5013831;28;20920;-68
2023/09/29 13:42:47;;;;;;;6.00;3.63;;;;;;;;;;5012600;28;20770;-70
2023/09/29 13:45:13;;;;;;;7.43;4.13;;;;;;;;;;5011706;28;20828;-67
2023/09/29 13:47:39;;;;;;;10.40;5.00;;;;;;;;;;4994734;28;20517;-68
2023/09/29 13:50:08;;;;;;;5.83;3.60;;;;;;;;;;5013453;28;20423;-68
2023/09/29 13:52:34;;;;;;;6.47;4.60;;;;;;;;;;5012841;28;20823;-69
2023/09/29 13:55:00;;;;;;;4.40;3.00;;;;;;;;;;5010378;28;20482;-68
2023/09/29 13:57:26;;;;;;;5.73;4.60;;;;;;;;;;5012476;28;20440;-70
2023/09/29 13:59:52;;;;;;;13.50;4.90;;;;;;;;;;5013129;28;20459;-67
2023/09/29 14:02:18;;;;;;;6.30;3.90;;;;;;;;;;5013115;28;20416;-72
2023/09/29 14:04:47;;;;;;;4.97;4.10;;;;;;;;;;5012516;28;20444;-72
2023/09/29 14:07:13;;;;;;;10.27;4.70;;;;;;;;;;5012212;28;20492;-72
2023/09/29 14:09:40;;;;;;;6.50;4.20;;;;;;;;;;5012315;28;20951;-71
2023/09/29 14:12:08;;;;;;;12.77;4.97;;;;;;;;;;5012932;28;20452;-73
2023/09/29 14:14:34;;;;;;;8.63;4.10;;;;;;;;;;5011057;28;20468;-68
2023/09/29 14:17:00;;;;;;;5.43;3.87;;;;;;;;;;5010404;28;20475;-68
2023/09/29 14:19:26;;;;;;;7.47;5.17;;;;;;;;;;5011947;28;20482;-72
2023/09/29 14:21:52;;;;;;;10.93;5.33;;;;;;;;;;5011934;28;20436;-71
2023/09/29 14:24:18;;;;;;;11.07;5.30;;;;;;;;;;5012952;28;20423;-71
2023/09/29 14:26:45;;;;;;;9.90;5.97;;;;;;;;;;5011578;28;20514;-70
2023/09/29 14:29:11;;;;;;;13.07;5.23;;;;;;;;;;5011927;28;20932;-71
2023/09/29 14:31:38;;;;;;;16.57;4.37;;;;;;;;;;5010739;28;20434;-68
2023/09/29 14:34:04;;;;;;;12.47;4.10;;;;;;;;;;5010093;28;20434;-74
2023/09/29 14:36:30;;;;;;;6.40;4.00;;;;;;;;;;5009417;28;20452;-70
2023/09/29 14:38:56;;;;;;;9.80;5.93;;;;;;;;;;5011456;28;20912;-74
2023/09/29 14:41:22;;;;;;;11.93;6.33;;;;;;;;;;5011316;28;20427;-73
2023/09/29 14:43:48;;;;;;;14.10;8.10;;;;;;;;;;5011472;28;20451;-72